^^
Station Historical Data
Daily Summary for November 23, 2017 Units:  Metric    English   Both
« Previous Day
Next Day »
Daily Weekly Monthly Yearly Custom
  High: Low: Average:
Temperature: 29.7 °C 11.4 °C 19.8 °C
Dew Point: 1.8 °C -10.5 °C -1.8 °C
Humidity: 48% 8% 27%
Wind Speed: 32km/h 0km/h 9km/h
Wind Gust: 35.4km/h - -
Wind- - SSW
Pressure: 1016.1 hPa 1010 hPa -
Precipitation: 0 mm    
Historical Graphs
 
 
Tabular Data for November 23, 2017
Time Temperature Dew Point Pressure Wind Wind Speed Wind Gust Humidity Rainfall Rate (Hourly) solar Conditions
00:13 16.9 °C -3.8 °C 1015.8 hPa Calm     24% 0 mm 0.0 W/m2
00:28 17.1 °C -3.6 °C 1015.5 hPa Calm     24% 0 mm 0.0 W/m2
00:33 17.1 °C -3.6 °C 1015.5 hPa Calm     24% 0 mm 0.0 W/m2
00:39 17.1 °C -3.6 °C 1015.5 hPa Calm     24% 0 mm 0.0 W/m2
00:49 16.9 °C -3.3 °C 1015.1 hPa South 6.4 km/h 8 km/h 25% 0 mm 0.0 W/m2
00:54 16.7 °C -3.4 °C 1015.1 hPa South 6.4 km/h 8 km/h 25% 0 mm 0.0 W/m2
00:59 16.5 °C -3.6 °C 1015.1 hPa South 6.4 km/h 9.7 km/h 25% 0 mm 0.0 W/m2
01:09 16.5 °C -3.1 °C 1015.1 hPa Calm     26% 0 mm 0.0 W/m2
01:14 16.6 °C -3 °C 1015.1 hPa Calm     26% 0 mm 0.0 W/m2
01:20 16.6 °C -3 °C 1015.1 hPa Calm     26% 0 mm 0.0 W/m2
01:25 16.6 °C -3 °C 1015.1 hPa Calm     26% 0 mm 0.0 W/m2
01:30 17 °C -2.7 °C 1015.1 hPa Calm     26% 0 mm 0.0 W/m2
01:35 17.4 °C -3.4 °C 1014.8 hPa Calm     24% 0 mm 0.0 W/m2
01:40 17.7 °C -3.1 °C 1014.8 hPa South 17.7 km/h 17.7 km/h 24% 0 mm 0.0 W/m2
01:45 17.1 °C -1.1 °C 1014.8 hPa South 3.2 km/h 9.7 km/h 29% 0 mm 0.0 W/m2
01:55 16.6 °C -0.6 °C 1014.8 hPa South 7.9 km/h 9.7 km/h 31% 0 mm 0.0 W/m2
02:06 15.8 °C 0 °C 1014.8 hPa South 6.4 km/h 6.4 km/h 34% 0 mm 0.0 W/m2
02:16 15.4 °C 0.4 °C 1014.8 hPa South 6.4 km/h 9.7 km/h 36% 0 mm 0.0 W/m2
02:21 15.3 °C 0.3 °C 1014.8 hPa South 7.9 km/h 8 km/h 36% 0 mm 0.0 W/m2
02:26 15.2 °C 0.6 °C 1014.8 hPa South 6.4 km/h 11.3 km/h 37% 0 mm 0.0 W/m2
02:31 15 °C 0.4 °C 1014.8 hPa Calm     37% 0 mm 0.0 W/m2
02:46 14.8 °C 1 °C 1014.8 hPa South 7.9 km/h 8 km/h 39% 0 mm 0.0 W/m2
02:51 14.7 °C 1.2 °C 1014.8 hPa South 9.7 km/h 16.1 km/h 40% 0 mm 0.0 W/m2
02:56 14.6 °C 1.1 °C 1014.8 hPa South 11.1 km/h 12.9 km/h 40% 0 mm 0.0 W/m2
03:07 14.4 °C 1.3 °C 1014.8 hPa SSW 11.1 km/h 16.1 km/h 41% 0 mm 0.0 W/m2
03:17 14.3 °C 1.2 °C 1014.8 hPa SSW 9.7 km/h 16.1 km/h 41% 0 mm 0.0 W/m2
03:27 14.2 °C 1.5 °C 1014.8 hPa SSW 13 km/h 13 km/h 42% 0 mm 0.0 W/m2
03:42 13.8 °C 1.4 °C 1014.8 hPa SSW 6.4 km/h 11.3 km/h 43% 0 mm 0.0 W/m2
03:57 13.4 °C 1.4 °C 1015.1 hPa SSW 6.4 km/h 9.7 km/h 44% 0 mm 0.0 W/m2
04:02 13.3 °C 1.3 °C 1015.1 hPa SSW 9.7 km/h 11.3 km/h 44% 0 mm 0.0 W/m2
04:07 13.3 °C 1.3 °C 1015.1 hPa SSW 7.9 km/h 9.7 km/h 44% 0 mm 0.0 W/m2
04:12 13.2 °C 1.2 °C 1015.1 hPa SSW 7.9 km/h 11.3 km/h 44% 0 mm 0.0 W/m2
04:22 13.1 °C 1.1 °C 1015.1 hPa SSW 6.4 km/h 9.7 km/h 44% 0 mm 0.0 W/m2
04:27 13.1 °C 1.4 °C 1015.1 hPa SSW 6.4 km/h 8 km/h 45% 0 mm 0.0 W/m2
04:37 12.7 °C 1.1 °C 1015.1 hPa SSW 6.4 km/h 6.4 km/h 45% 0 mm 0.0 W/m2
04:42 12.5 °C 0.9 °C 1015.1 hPa SSW 4.7 km/h 6.4 km/h 45% 0 mm 0.0 W/m2
04:48 12.3 °C 1 °C 1015.1 hPa SSW 6.4 km/h 6.4 km/h 46% 0 mm 0.0 W/m2
04:53 12.2 °C 0.9 °C 1015.1 hPa SSW 3.2 km/h 4.8 km/h 46% 0 mm 0.0 W/m2
04:58 11.9 °C 0.6 °C 1015.1 hPa SSW 4.7 km/h 6.4 km/h 46% 0 mm 0.0 W/m2
05:03 11.8 °C 0.6 °C 1015.1 hPa Calm     46% 0 mm 0.0 W/m2
05:09 11.6 °C 0.7 °C 1015.1 hPa Calm     47% 0 mm 0.0 W/m2
05:19 11.4 °C 0.8 °C 1015.1 hPa Calm     48% 0 mm 0.0 W/m2
05:24 11.5 °C 0.9 °C 1015.1 hPa Calm     48% 0 mm 0.0 W/m2
05:35 11.9 °C 1.2 °C 1015.1 hPa Calm     48% 0 mm 0.0 W/m2
05:40 12.2 °C 1.5 °C 1015.1 hPa Calm     48% 0 mm 0.0 W/m2
05:50 12.5 °C 1.5 °C 1015.1 hPa SSW 9.7 km/h 9.7 km/h 47% 0 mm 5.0 W/m2
05:55 12.5 °C 1.5 °C 1015.1 hPa SSW 4.7 km/h 6.4 km/h 47% 0 mm 9.0 W/m2
06:05 12.4 °C 1.7 °C 1015.5 hPa SSW 7.9 km/h 11.3 km/h 48% 0 mm 14.0 W/m2
06:10 12.5 °C 1.5 °C 1015.5 hPa SSW 9.7 km/h 11.3 km/h 47% 0 mm 19.0 W/m2
06:15 12.7 °C 1.7 °C 1015.5 hPa SSW 4.7 km/h 8 km/h 47% 0 mm 32.0 W/m2
06:25 13 °C 1.6 °C 1015.5 hPa SSW 7.9 km/h 9.7 km/h 46% 0 mm 62.0 W/m2
06:30 13.2 °C 1.8 °C 1015.5 hPa SSW 9.7 km/h 12.9 km/h 46% 0 mm 77.0 W/m2
06:45 13.7 °C 1.7 °C 1015.8 hPa SSW 7.9 km/h 11.3 km/h 44% 0 mm 135.0 W/m2
06:50 13.9 °C 1.8 °C 1015.8 hPa SSW 7.9 km/h 11.3 km/h 44% 0 mm 153.0 W/m2
07:01 14.4 °C 1.6 °C 1015.8 hPa SSW 9.7 km/h 11.3 km/h 42% 0 mm 199.0 W/m2
07:05 14.7 °C 1.6 °C 1015.8 hPa SSW 9.7 km/h 11.3 km/h 41% 0 mm 220.0 W/m2
07:11 14.9 °C 1.4 °C 1015.8 hPa SSW 7.9 km/h 11.3 km/h 40% 0 mm 241.0 W/m2
07:16 15.2 °C 1.3 °C 1015.8 hPa SSW 7.9 km/h 11.3 km/h 39% 0 mm 258.0 W/m2
07:21 15.4 °C 1.1 °C 1015.8 hPa SSW 6.4 km/h 11.3 km/h 38% 0 mm 276.0 W/m2
07:36 16.1 °C 1 °C 1015.8 hPa SSW 7.9 km/h 11.3 km/h 36% 0 mm 325.0 W/m2
08:16 17.6 °C 0.3 °C 1016.1 hPa SSW 7.9 km/h 9.7 km/h 31% 0 mm 450.0 W/m2
09:50 21.7 °C -1.6 °C 1015.5 hPa Calm     21% 0 mm 735.0 W/m2
10:06 22.8 °C -2.8 °C 1015.1 hPa Calm   1.6 km/h 18% 0 mm 784.0 W/m2
10:14 23.2 °C -2.4 °C 1014.8 hPa Calm     18% 0 mm 812.0 W/m2
10:19 23.3 °C -2.4 °C 1015.1 hPa Calm   1.6 km/h 18% 0 mm 824.0 W/m2
10:29 23.7 °C -2.8 °C 1014.8 hPa Calm   12.9 km/h 17% 0 mm 847.0 W/m2
10:38 23.9 °C -2.6 °C 1014.8 hPa SSW 3.2 km/h 12.9 km/h 17% 0 mm 865.0 W/m2
10:44 23.9 °C -2.6 °C 1014.8 hPa SSW 6.4 km/h 9.7 km/h 17% 0 mm 875.0 W/m2
10:49 23.9 °C -2.6 °C 1014.4 hPa Calm   9.7 km/h 17% 0 mm 882.0 W/m2
10:54 24.1 °C -2.5 °C 1014.4 hPa Calm     17% 0 mm 895.0 W/m2
11:23 25.1 °C -3.4 °C 1014.4 hPa Calm     15% 0 mm 939.0 W/m2
11:50 25.6 °C -3 °C 1013.8 hPa Calm   11.3 km/h 15% 0 mm 965.0 W/m2
12:07 26.3 °C -3.3 °C 1013.4 hPa SSW 9.7 km/h 12.9 km/h 14% 0 mm 976.0 W/m2
12:16 26.8 °C -3.9 °C 1013.4 hPa SSW 4.7 km/h 14.5 km/h 13% 0 mm 984.0 W/m2
12:21 26.7 °C -3 °C 1013.1 hPa SSW 7.9 km/h 8 km/h 14% 0 mm 981.0 W/m2
12:27 27.1 °C -2.7 °C 1013.1 hPa SSW 9.7 km/h 16.1 km/h 14% 0 mm 983.0 W/m2
12:33 27.1 °C -2.7 °C 1012.8 hPa SSW 11.1 km/h 16.1 km/h 14% 0 mm 984.0 W/m2
12:38 27.1 °C -2.7 °C 1012.8 hPa SSW 7.9 km/h 14.5 km/h 14% 0 mm 981.0 W/m2
12:47 26.6 °C -3.1 °C 1012.8 hPa SSW 11.1 km/h 16.1 km/h 14% 0 mm 979.0 W/m2
12:52 26.8 °C -2.9 °C 1012.8 hPa SSW 6.4 km/h 16.1 km/h 14% 0 mm 979.0 W/m2
13:11 27.4 °C -2.5 °C 1012.1 hPa South 6.4 km/h 9.7 km/h 14% 0 mm 969.0 W/m2
13:21 27.6 °C -3.3 °C 1012.1 hPa South 11.1 km/h 19.3 km/h 13% 0 mm 963.0 W/m2
13:26 27.7 °C -3.2 °C 1012.1 hPa South 13 km/h 13 km/h 13% 0 mm 960.0 W/m2
13:31 27.6 °C -3.3 °C 1012.1 hPa South 6.4 km/h 9.7 km/h 13% 0 mm 956.0 W/m2
13:39 27.6 °C -3.3 °C 1012.1 hPa South 7.9 km/h 11.3 km/h 13% 0 mm 951.0 W/m2
13:53 28.2 °C -2.8 °C 1012.1 hPa SSW 7.9 km/h 17.7 km/h 13% 0 mm 937.0 W/m2
14:05 28.3 °C -3.8 °C 1012.1 hPa SSW 4.7 km/h 12.9 km/h 12% 0 mm 918.0 W/m2
14:31 28.9 °C -4.5 °C 1011.4 hPa SSW 16.3 km/h 22.5 km/h 11% 0 mm 821.0 W/m2
14:40 29.1 °C -4.4 °C 1011.4 hPa South 14.3 km/h 19.3 km/h 11% 0 mm 847.0 W/m2
14:52 28.9 °C -4.5 °C 1011.1 hPa SSW 14.3 km/h 24.1 km/h 11% 0 mm 847.0 W/m2
15:07 28.9 °C -4.5 °C 1010.7 hPa South 1.4 km/h 20.9 km/h 11% 0 mm 752.0 W/m2
16:07 29.6 °C -5.2 °C 1010 hPa SSW 14.3 km/h 20.9 km/h 10% 0 mm 527.0 W/m2
16:37 29.7 °C -6.6 °C 1010 hPa SSW 20.9 km/h 25.7 km/h 9% 0 mm 410.0 W/m2
17:04 29.6 °C -5.2 °C 1010 hPa South 20.9 km/h 27.4 km/h 10% 0 mm 355.0 W/m2
17:19 29.6 °C -5.2 °C 1010 hPa South 22.7 km/h 27.4 km/h 10% 0 mm 417.0 W/m2
17:58 29.3 °C -5.5 °C 1010 hPa South 16.3 km/h 25.7 km/h 10% 0 mm 281.0 W/m2
18:10 29.1 °C -7 °C 1010.4 hPa South 27.4 km/h 27.4 km/h 9% 0 mm 218.0 W/m2
18:17 29 °C -5.7 °C 1010.4 hPa South 19.5 km/h 24.1 km/h 10% 0 mm 193.0 W/m2
18:39 28.6 °C -6 °C 1010.7 hPa SSE 25.9 km/h 30.6 km/h 10% 0 mm 98.0 W/m2
18:54 28.1 °C -7.8 °C 1010.7 hPa South 32 km/h 35.4 km/h 9% 0 mm 62.0 W/m2
19:23 26.8 °C -8.7 °C 1011.1 hPa SSW 22.7 km/h 30.6 km/h 9% 0 mm 9.0 W/m2
19:31 26.4 °C -10.5 °C 1011.4 hPa South 20.9 km/h 27.4 km/h 8% 0 mm 0.0 W/m2
19:42 26.2 °C -9.2 °C 1011.4 hPa South 19.5 km/h 29 km/h 9% 0 mm 0.0 W/m2
19:55 25.8 °C -5.8 °C 1011.4 hPa SSW 16.3 km/h 25.7 km/h 12% 0 mm 0.0 W/m2
20:20 24.5 °C -1.4 °C 1011.7 hPa South 20.9 km/h 25.7 km/h 18% 0 mm 0.0 W/m2
21:10 23.3 °C -0.9 °C 1012.4 hPa South 16.3 km/h 24.1 km/h 20% 0 mm 0.0 W/m2
21:24 22.8 °C -1.3 °C 1012.4 hPa SSW 17.7 km/h 19.3 km/h 20% 0 mm 0.0 W/m2
21:34 22.5 °C -1.6 °C 1012.8 hPa SSW 14.3 km/h 20.9 km/h 20% 0 mm 0.0 W/m2
22:18 21.4 °C -1.8 °C 1012.8 hPa SSW 14.3 km/h 17.7 km/h 21% 0 mm 0.0 W/m2
22:27 21.3 °C -1.9 °C 1012.8 hPa SSW 17.7 km/h 20.9 km/h 21% 0 mm 0.0 W/m2
22:37 21.2 °C -2 °C 1013.1 hPa South 20.9 km/h 22.5 km/h 21% 0 mm 0.0 W/m2
23:06 20.6 °C -2.5 °C 1013.4 hPa SSW 25.9 km/h 25.9 km/h 21% 0 mm 0.0 W/m2
23:15 20.5 °C -2.6 °C 1013.1 hPa SSW 17.7 km/h 30.6 km/h 21% 0 mm 0.0 W/m2
23:20 20.4 °C -2.7 °C 1013.4 hPa SSW 11.1 km/h 22.5 km/h 21% 0 mm 0.0 W/m2
23:25 20.4 °C -3.3 °C 1013.4 hPa SSW 17.7 km/h 22.5 km/h 20% 0 mm 0.0 W/m2
23:35 20.3 °C -3.4 °C 1013.4 hPa SSW 22.7 km/h 25.7 km/h 20% 0 mm 0.0 W/m2
23:40 20.3 °C -3.4 °C 1013.4 hPa SSW 14.3 km/h 25.7 km/h 20% 0 mm 0.0 W/m2
23:45 20.2 °C -2.8 °C 1013.4 hPa SSW 20.9 km/h 20.9 km/h 21% 0 mm 0.0 W/m2
23:50 20.1 °C -3.6 °C 1013.1 hPa SSW 16.3 km/h 24.1 km/h 20% 0 mm 0.0 W/m2
Canyon Roadhouse, Fishriver Canyon, Namibia
Compliments of Weather Underground - 2.25 mb